createdAt,value
2023-02-27T00:01:57.605Z,0.48
2023-02-27T00:07:01.544Z,0.46
2023-02-27T00:12:05.012Z,0.46
2023-02-27T00:17:08.679Z,0.45
2023-02-27T00:22:13.250Z,0.44
2023-02-27T00:27:17.337Z,0.44
2023-02-27T00:32:22.101Z,0.41
2023-02-27T00:37:26.782Z,0.40
2023-02-27T00:42:31.282Z,0.38
2023-02-27T00:47:37.063Z,0.36
2023-02-27T00:52:41.007Z,0.35
2023-02-27T00:57:45.250Z,0.34
2023-02-27T01:02:50.657Z,0.32
2023-02-27T01:07:55.372Z,0.30
2023-02-27T01:12:59.053Z,0.30
2023-02-27T01:18:03.351Z,0.29
2023-02-27T01:23:06.954Z,0.27
2023-02-27T01:28:10.940Z,0.26
2023-02-27T01:33:14.714Z,0.25
2023-02-27T01:38:19.702Z,0.22
2023-02-27T01:43:24.509Z,0.20
2023-02-27T01:48:38.250Z,0.19
2023-02-27T01:53:44.321Z,0.17
2023-02-27T01:58:50.137Z,0.15
2023-02-27T02:04:27.347Z,0.14
2023-02-27T02:09:31.833Z,0.12
2023-02-27T02:14:35.443Z,0.10
2023-02-27T02:20:14.267Z,0.08
2023-02-27T02:25:53.069Z,0.07
2023-02-27T02:31:34.764Z,0.05
2023-02-27T02:48:19.891Z,0.01
2023-02-27T02:53:42.408Z,0.02
2023-02-27T02:59:18.040Z,0.00
2023-02-27T03:04:36.979Z,-0.01
2023-02-27T03:09:58.241Z,-0.01
2023-02-27T03:15:23.603Z,-0.01
2023-02-27T03:20:34.798Z,-0.01
2023-02-27T03:25:40.587Z,-0.02
2023-02-27T03:31:22.577Z,-0.02
2023-02-27T03:36:33.710Z,-0.01
2023-02-27T03:41:45.487Z,-0.02
2023-02-27T03:47:02.873Z,-0.02
2023-02-27T03:52:07.483Z,-0.02
2023-02-27T03:57:13.694Z,-0.03
2023-02-27T04:02:17.591Z,-0.04
2023-02-27T04:08:04.033Z,-0.02
2023-02-27T04:13:19.622Z,-0.03
2023-02-27T04:19:12.124Z,-0.05
2023-02-27T04:24:34.707Z,-0.07
2023-02-27T04:29:50.200Z,-0.08
2023-02-27T04:35:00.863Z,-0.08
2023-02-27T04:40:12.266Z,-0.08
2023-02-27T04:45:19.645Z,-0.09
2023-02-27T04:50:26.863Z,-0.09
2023-02-27T04:55:34.904Z,-0.11
2023-02-27T05:00:41.275Z,-0.13
2023-02-27T05:05:47.374Z,-0.16
2023-02-27T05:10:58.477Z,-0.18
2023-02-27T05:16:34.408Z,-0.17
2023-02-27T05:21:44.166Z,-0.19
2023-02-27T05:27:06.975Z,-0.21
2023-02-27T05:32:27.232Z,-0.22
2023-02-27T05:37:37.915Z,-0.23
2023-02-27T05:42:45.789Z,-0.24
2023-02-27T05:47:56.264Z,-0.24
2023-02-27T05:53:04.137Z,-0.24
2023-02-27T05:58:19.991Z,-0.23
2023-02-27T06:03:23.837Z,-0.21
2023-02-27T06:08:28.137Z,-0.22
2023-02-27T06:13:31.680Z,-0.21
2023-02-27T06:18:35.729Z,-0.20
2023-02-27T06:23:39.441Z,-0.17
2023-02-27T06:28:44.520Z,-0.16
2023-02-27T06:33:49.076Z,-0.13
2023-02-27T06:38:53.232Z,-0.11
2023-02-27T06:43:58.309Z,-0.08
2023-02-27T06:49:02.555Z,-0.01
2023-02-27T06:54:06.858Z,0.05
2023-02-27T06:59:13.169Z,0.11
2023-02-27T07:04:17.559Z,0.15
2023-02-27T07:09:21.342Z,0.18
2023-02-27T07:14:26.086Z,0.18
2023-02-27T07:19:29.712Z,0.22
2023-02-27T07:24:33.264Z,0.28
2023-02-27T07:29:36.998Z,0.33
2023-02-27T07:34:40.543Z,0.35
2023-02-27T07:39:45.236Z,0.38
2023-02-27T07:44:48.761Z,0.42
2023-02-27T07:49:52.374Z,0.53
2023-02-27T07:54:56.030Z,0.61
2023-02-27T07:59:59.564Z,0.65
2023-02-27T08:05:03.444Z,0.69
2023-02-27T08:10:07.916Z,0.73
2023-02-27T08:15:12.561Z,0.79
2023-02-27T08:20:17.236Z,0.88
2023-02-27T08:25:21.872Z,0.99
2023-02-27T08:30:25.589Z,1.12
2023-02-27T08:35:29.650Z,1.27
2023-02-27T08:40:33.531Z,1.41
2023-02-27T08:45:37.360Z,1.53
2023-02-27T08:50:41.211Z,1.66
2023-02-27T08:55:45.141Z,1.87
2023-02-27T09:00:49.535Z,2.09
2023-02-27T09:05:53.708Z,2.31
2023-02-27T09:10:58.188Z,2.59
2023-02-27T09:16:02.174Z,2.83
2023-02-27T09:21:06.005Z,2.96
2023-02-27T09:26:09.923Z,3.03
2023-02-27T09:31:14.065Z,3.03
2023-02-27T09:36:18.001Z,2.97
2023-02-27T09:41:29.647Z,2.87
2023-02-27T09:46:33.413Z,2.89
2023-02-27T09:51:37.229Z,2.91
2023-02-27T09:57:02.642Z,2.99
2023-02-27T10:02:41.166Z,3.06
2023-02-27T10:08:01.723Z,3.12
2023-02-27T10:13:27.932Z,3.14
2023-02-27T10:18:41.873Z,3.19
2023-02-27T10:24:07.613Z,3.23
2023-02-27T10:29:19.031Z,3.32
2023-02-27T10:34:23.420Z,3.46
2023-02-27T10:39:28.461Z,3.58
2023-02-27T10:44:34.515Z,3.79
2023-02-27T10:49:39.559Z,3.82
2023-02-27T10:54:43.743Z,3.77
2023-02-27T11:00:10.164Z,3.76
2023-02-27T11:05:26.568Z,3.74
2023-02-27T11:10:30.294Z,3.72
2023-02-27T11:15:38.589Z,3.73
2023-02-27T11:20:43.934Z,3.83
2023-02-27T11:25:48.005Z,3.95
2023-02-27T11:31:04.442Z,3.98
2023-02-27T11:36:09.418Z,3.98
2023-02-27T11:41:13.386Z,3.96
2023-02-27T11:46:47.231Z,3.78
2023-02-27T11:52:10.238Z,3.50
2023-02-27T11:57:30.375Z,3.26
2023-02-27T12:02:39.136Z,3.12
2023-02-27T12:07:55.237Z,3.03
2023-02-27T12:13:10.971Z,3.03
2023-02-27T12:18:20.918Z,3.10
2023-02-27T12:23:40.194Z,3.16
2023-02-27T12:28:44.282Z,3.15
2023-02-27T12:34:04.642Z,3.05
2023-02-27T12:39:18.133Z,2.79
2023-02-27T12:44:25.183Z,2.65
2023-02-27T12:49:51.973Z,2.58
2023-02-27T12:55:18.426Z,2.62
2023-02-27T13:00:41.915Z,2.72
2023-02-27T13:05:58.623Z,2.87
2023-02-27T13:11:15.184Z,3.01
2023-02-27T13:16:31.076Z,3.09
2023-02-27T13:22:01.372Z,3.04
2023-02-27T13:27:22.021Z,3.03
2023-02-27T13:32:44.495Z,3.01
2023-02-27T13:38:02.485Z,3.05
2023-02-27T13:43:30.676Z,3.06
2023-02-27T13:48:34.945Z,3.02
2023-02-27T13:53:38.866Z,3.03
2023-02-27T13:58:43.303Z,2.95
2023-02-27T14:03:58.520Z,2.84
2023-02-27T14:09:14.649Z,2.75
2023-02-27T14:14:47.698Z,2.64
2023-02-27T14:19:57.330Z,2.55
2023-02-27T14:25:32.413Z,2.49
2023-02-27T14:30:41.391Z,2.47
2023-02-27T14:35:47.558Z,2.46
2023-02-27T14:41:13.119Z,2.45
2023-02-27T14:46:29.088Z,2.44
2023-02-27T14:51:35.280Z,2.45
2023-02-27T14:56:39.889Z,2.44
2023-02-27T15:01:43.782Z,2.46
2023-02-27T15:06:50.072Z,2.46
2023-02-27T15:12:03.509Z,2.44
2023-02-27T15:17:19.903Z,2.41
2023-02-27T15:22:39.385Z,2.43
2023-02-27T15:27:47.179Z,2.44
2023-02-27T15:32:52.999Z,2.42
2023-02-27T15:38:00.410Z,2.37
2023-02-27T15:43:05.209Z,2.32
2023-02-27T15:48:14.298Z,2.25
2023-02-27T15:53:21.936Z,2.16
2023-02-27T15:58:30.817Z,2.09
2023-02-27T16:03:39.656Z,2.02
2023-02-27T16:08:47.275Z,1.98
2023-02-27T16:13:52.372Z,1.93
2023-02-27T16:19:00.951Z,1.89
2023-02-27T16:24:21.742Z,1.84
2023-02-27T16:29:37.469Z,1.81
2023-02-27T16:34:46.766Z,1.77
2023-02-27T16:40:02.219Z,1.72
2023-02-27T16:45:08.814Z,1.69
2023-02-27T16:50:22.484Z,1.66
2023-02-27T16:55:28.731Z,1.62
2023-02-27T17:00:35.425Z,1.60
2023-02-27T17:05:39.706Z,1.56
2023-02-27T17:10:45.688Z,1.55
2023-02-27T17:15:51.185Z,1.52
2023-02-27T17:21:02.175Z,1.49
2023-02-27T17:26:07.579Z,1.46
2023-02-27T17:31:23.937Z,1.41
2023-02-27T17:36:28.281Z,1.35
2023-02-27T17:41:35.854Z,1.30
2023-02-27T17:46:42.261Z,1.21
2023-02-27T17:51:47.561Z,1.10
2023-02-27T17:56:56.151Z,0.98
2023-02-27T18:02:03.392Z,0.87
2023-02-27T18:07:08.970Z,0.73
2023-02-27T18:12:15.291Z,0.62
2023-02-27T18:17:26.758Z,0.51
2023-02-27T18:22:34.590Z,0.39
2023-02-27T18:27:42.391Z,0.25
2023-02-27T18:32:47.377Z,0.09
2023-02-27T18:37:56.215Z,-0.07
2023-02-27T18:43:03.898Z,-0.17
2023-02-27T18:48:11.310Z,-0.29
2023-02-27T18:53:16.815Z,-0.40
2023-02-27T18:58:28.569Z,-0.51
2023-02-27T19:03:37.239Z,-0.60
2023-02-27T19:08:46.004Z,-0.69
2023-02-27T19:13:52.697Z,-0.83
2023-02-27T19:19:04.611Z,-0.91
2023-02-27T19:24:13.953Z,-1.03
2023-02-27T19:29:22.188Z,-1.19
2023-02-27T19:34:29.160Z,-1.27
2023-02-27T19:39:36.984Z,-1.30
2023-02-27T19:44:46.182Z,-1.35
2023-02-27T19:49:53.144Z,-1.43
2023-02-27T19:55:03.768Z,-1.54
2023-02-27T20:00:14.089Z,-1.64
2023-02-27T20:05:22.274Z,-1.69
2023-02-27T20:10:31.893Z,-1.78
2023-02-27T20:15:45.428Z,-1.88
2023-02-27T20:21:32.258Z,-1.95
2023-02-27T20:26:44.033Z,-1.94
2023-02-27T20:31:54.031Z,-1.97
2023-02-27T20:37:01.549Z,-2.06
2023-02-27T20:42:09.186Z,-2.15
2023-02-27T20:47:16.022Z,-2.23
2023-02-27T20:52:25.298Z,-2.27
2023-02-27T20:57:32.623Z,-2.32
2023-02-27T21:02:38.035Z,-2.35
2023-02-27T21:07:47.840Z,-2.39
2023-02-27T21:12:55.250Z,-2.51
2023-02-27T21:18:02.715Z,-2.55
2023-02-27T21:23:08.942Z,-2.52
2023-02-27T21:28:14.689Z,-2.47
2023-02-27T21:33:18.675Z,-2.39
2023-02-27T21:38:22.858Z,-2.30
2023-02-27T21:43:26.805Z,-2.21
2023-02-27T21:48:31.044Z,-2.09
2023-02-27T21:53:37.138Z,-1.92
2023-02-27T21:58:40.950Z,-1.76
2023-02-27T22:03:48.170Z,-1.59
2023-02-27T22:08:59.116Z,-1.40
2023-02-27T22:14:03.888Z,-1.21
2023-02-27T22:19:12.170Z,-1.08
2023-02-27T22:24:17.227Z,-0.93
2023-02-27T22:29:25.931Z,-0.80
2023-02-27T22:34:31.227Z,-0.71
2023-02-27T22:39:35.195Z,-0.61
2023-02-27T22:44:38.850Z,-0.49
2023-02-27T22:49:45.312Z,-0.44
2023-02-27T22:54:50.504Z,-0.40
2023-02-27T22:59:56.183Z,-0.35
2023-02-27T23:05:00.550Z,-0.32
2023-02-27T23:10:09.994Z,-0.29
2023-02-27T23:15:13.613Z,-0.27
2023-02-27T23:20:17.601Z,-0.22
2023-02-27T23:25:23.020Z,-0.21
2023-02-27T23:30:27.114Z,-0.20
2023-02-27T23:35:31.803Z,-0.20
2023-02-27T23:40:36.441Z,-0.18
2023-02-27T23:45:41.698Z,-0.19
2023-02-27T23:50:46.234Z,-0.22
2023-02-27T23:55:50.028Z,-0.22
